sensor_id;sensor_type;location;lat;lon;timestamp;pressure;altitude;pressure_sealevel;temperature;humidity
77017;BME280;65949;53.132;17.930;2023-05-07T00:00:09;101875.80;;;5.81;83.52
77017;BME280;65949;53.132;17.930;2023-05-07T00:02:55;101876.33;;;5.76;83.66
77017;BME280;65949;53.132;17.930;2023-05-07T00:05:22;101874.30;;;5.70;83.46
77017;BME280;65949;53.132;17.930;2023-05-07T00:07:48;101871.00;;;5.63;83.27
77017;BME280;65949;53.132;17.930;2023-05-07T00:10:15;101869.96;;;5.57;83.28
77017;BME280;65949;53.132;17.930;2023-05-07T00:12:42;101866.82;;;5.50;83.47
77017;BME280;65949;53.132;17.930;2023-05-07T00:15:09;101869.90;;;5.43;83.52
77017;BME280;65949;53.132;17.930;2023-05-07T00:17:36;101865.86;;;5.37;83.48
77017;BME280;65949;53.132;17.930;2023-05-07T00:20:04;101870.10;;;5.31;83.72
77017;BME280;65949;53.132;17.930;2023-05-07T00:22:31;101871.48;;;5.25;83.69
77017;BME280;65949;53.132;17.930;2023-05-07T00:24:59;101870.65;;;5.19;83.29
77017;BME280;65949;53.132;17.930;2023-05-07T00:27:25;101869.73;;;5.14;83.42
77017;BME280;65949;53.132;17.930;2023-05-07T00:29:52;101871.28;;;5.09;83.40
77017;BME280;65949;53.132;17.930;2023-05-07T00:32:18;101876.96;;;5.05;83.43
77017;BME280;65949;53.132;17.930;2023-05-07T00:34:45;101879.59;;;5.00;83.65
77017;BME280;65949;53.132;17.930;2023-05-07T00:37:12;101879.31;;;4.95;83.60
77017;BME280;65949;53.132;17.930;2023-05-07T00:39:39;101883.61;;;4.91;83.64
77017;BME280;65949;53.132;17.930;2023-05-07T00:42:05;101886.63;;;4.87;83.54
77017;BME280;65949;53.132;17.930;2023-05-07T00:44:32;101883.61;;;4.84;83.50
77017;BME280;65949;53.132;17.930;2023-05-07T00:47:01;101884.06;;;4.80;83.84
77017;BME280;65949;53.132;17.930;2023-05-07T00:49:39;101886.13;;;4.76;83.86
77017;BME280;65949;53.132;17.930;2023-05-07T00:52:09;101888.35;;;4.72;83.83
77017;BME280;65949;53.132;17.930;2023-05-07T00:54:38;101893.28;;;4.69;83.94
77017;BME280;65949;53.132;17.930;2023-05-07T00:57:05;101895.70;;;4.64;83.82
77017;BME280;65949;53.132;17.930;2023-05-07T00:59:32;101897.53;;;4.62;83.62
77017;BME280;65949;53.132;17.930;2023-05-07T01:01:59;101896.95;;;4.60;83.74
77017;BME280;65949;53.132;17.930;2023-05-07T01:04:26;101895.38;;;4.55;83.85
77017;BME280;65949;53.132;17.930;2023-05-07T01:06:55;101895.36;;;4.51;83.97
77017;BME280;65949;53.132;17.930;2023-05-07T01:09:24;101896.40;;;4.48;83.81
77017;BME280;65949;53.132;17.930;2023-05-07T01:11:52;101897.64;;;4.45;83.72
77017;BME280;65949;53.132;17.930;2023-05-07T01:14:20;101898.08;;;4.42;83.86
77017;BME280;65949;53.132;17.930;2023-05-07T01:16:48;101896.74;;;4.37;83.58
77017;BME280;65949;53.132;17.930;2023-05-07T01:19:18;101895.90;;;4.33;83.77
77017;BME280;65949;53.132;17.930;2023-05-07T01:21:47;101897.89;;;4.30;83.74
77017;BME280;65949;53.132;17.930;2023-05-07T01:24:15;101898.56;;;4.28;84.16
77017;BME280;65949;53.132;17.930;2023-05-07T01:26:43;101899.76;;;4.24;83.60
77017;BME280;65949;53.132;17.930;2023-05-07T01:29:12;101904.54;;;4.18;83.39
77017;BME280;65949;53.132;17.930;2023-05-07T01:31:40;101904.55;;;4.14;83.60
77017;BME280;65949;53.132;17.930;2023-05-07T01:34:10;101907.77;;;4.10;83.97
77017;BME280;65949;53.132;17.930;2023-05-07T01:36:39;101909.58;;;4.06;83.81
77017;BME280;65949;53.132;17.930;2023-05-07T01:39:09;101906.47;;;4.02;83.69
77017;BME280;65949;53.132;17.930;2023-05-07T01:41:37;101909.94;;;3.97;83.65
77017;BME280;65949;53.132;17.930;2023-05-07T01:44:04;101914.88;;;3.93;83.72
77017;BME280;65949;53.132;17.930;2023-05-07T01:46:32;101916.20;;;3.88;83.59
77017;BME280;65949;53.132;17.930;2023-05-07T01:48:59;101912.80;;;3.83;83.57
77017;BME280;65949;53.132;17.930;2023-05-07T01:51:26;101916.37;;;3.78;83.47
77017;BME280;65949;53.132;17.930;2023-05-07T01:53:53;101912.63;;;3.71;83.57
77017;BME280;65949;53.132;17.930;2023-05-07T01:56:20;101916.50;;;3.67;83.35
77017;BME280;65949;53.132;17.930;2023-05-07T01:58:47;101919.41;;;3.63;83.55
77017;BME280;65949;53.132;17.930;2023-05-07T02:01:14;101921.00;;;3.60;83.57
77017;BME280;65949;53.132;17.930;2023-05-07T02:03:41;101926.94;;;3.57;83.79
77017;BME280;65949;53.132;17.930;2023-05-07T02:06:11;101926.24;;;3.56;84.04
77017;BME280;65949;53.132;17.930;2023-05-07T02:08:40;101926.17;;;3.54;83.92
77017;BME280;65949;53.132;17.930;2023-05-07T02:11:06;101927.09;;;3.52;84.09
77017;BME280;65949;53.132;17.930;2023-05-07T02:13:34;101927.76;;;3.49;83.79
77017;BME280;65949;53.132;17.930;2023-05-07T02:16:02;101924.65;;;3.46;83.91
77017;BME280;65949;53.132;17.930;2023-05-07T02:18:29;101926.22;;;3.42;83.72
77017;BME280;65949;53.132;17.930;2023-05-07T02:20:55;101927.58;;;3.37;83.47
77017;BME280;65949;53.132;17.930;2023-05-07T02:23:22;101926.36;;;3.33;83.64
77017;BME280;65949;53.132;17.930;2023-05-07T02:25:49;101931.31;;;3.29;83.46
77017;BME280;65949;53.132;17.930;2023-05-07T02:28:15;101932.80;;;3.25;83.66
77017;BME280;65949;53.132;17.930;2023-05-07T02:30:54;101939.49;;;3.22;83.82
77017;BME280;65949;53.132;17.930;2023-05-07T02:33:21;101941.66;;;3.19;83.50
77017;BME280;65949;53.132;17.930;2023-05-07T02:35:48;101945.39;;;3.17;83.57
77017;BME280;65949;53.132;17.930;2023-05-07T02:38:15;101947.02;;;3.15;83.69
77017;BME280;65949;53.132;17.930;2023-05-07T02:40:42;101946.52;;;3.11;83.49
77017;BME280;65949;53.132;17.930;2023-05-07T02:43:08;101943.46;;;3.08;83.45
77017;BME280;65949;53.132;17.930;2023-05-07T02:45:35;101946.47;;;3.04;83.46
77017;BME280;65949;53.132;17.930;2023-05-07T02:48:05;101945.47;;;3.00;83.27
77017;BME280;65949;53.132;17.930;2023-05-07T02:50:32;101946.05;;;2.96;83.51
77017;BME280;65949;53.132;17.930;2023-05-07T02:52:59;101940.91;;;2.93;83.55
77017;BME280;65949;53.132;17.930;2023-05-07T02:55:26;101945.81;;;2.92;83.83
77017;BME280;65949;53.132;17.930;2023-05-07T02:57:52;101943.83;;;2.92;83.77
77017;BME280;65949;53.132;17.930;2023-05-07T03:00:20;101943.83;;;2.90;83.58
77017;BME280;65949;53.132;17.930;2023-05-07T03:02:55;101944.48;;;2.89;83.68
77017;BME280;65949;53.132;17.930;2023-05-07T03:05:22;101940.67;;;2.86;83.49
77017;BME280;65949;53.132;17.930;2023-05-07T03:07:49;101945.55;;;2.84;83.35
77017;BME280;65949;53.132;17.930;2023-05-07T03:10:16;101947.65;;;2.82;83.47
77017;BME280;65949;53.132;17.930;2023-05-07T03:12:42;101950.62;;;2.82;83.67
77017;BME280;65949;53.132;17.930;2023-05-07T03:15:10;101959.42;;;2.83;83.61
77017;BME280;65949;53.132;17.930;2023-05-07T03:17:39;101961.08;;;2.85;83.82
77017;BME280;65949;53.132;17.930;2023-05-07T03:20:06;101960.44;;;2.86;83.70
77017;BME280;65949;53.132;17.930;2023-05-07T03:22:33;101960.38;;;2.88;83.92
77017;BME280;65949;53.132;17.930;2023-05-07T03:25:00;101968.31;;;2.89;83.61
77017;BME280;65949;53.132;17.930;2023-05-07T03:27:27;101968.20;;;2.90;83.64
77017;BME280;65949;53.132;17.930;2023-05-07T03:29:54;101970.02;;;2.92;83.66
77017;BME280;65949;53.132;17.930;2023-05-07T03:32:21;101973.25;;;2.96;83.64
77017;BME280;65949;53.132;17.930;2023-05-07T03:34:48;101971.77;;;2.99;83.63
77017;BME280;65949;53.132;17.930;2023-05-07T03:37:14;101974.59;;;3.03;83.68
77017;BME280;65949;53.132;17.930;2023-05-07T03:39:41;101979.61;;;3.07;83.61
77017;BME280;65949;53.132;17.930;2023-05-07T03:42:10;101979.81;;;3.12;83.63
77017;BME280;65949;53.132;17.930;2023-05-07T03:44:37;101984.45;;;3.15;83.27
77017;BME280;65949;53.132;17.930;2023-05-07T03:47:04;101985.00;;;3.19;83.68
77017;BME280;65949;53.132;17.930;2023-05-07T03:49:31;101994.05;;;3.24;83.59
77017;BME280;65949;53.132;17.930;2023-05-07T03:51:58;101993.83;;;3.29;83.51
77017;BME280;65949;53.132;17.930;2023-05-07T03:54:24;101991.45;;;3.33;83.19
77017;BME280;65949;53.132;17.930;2023-05-07T03:56:51;101992.83;;;3.38;83.39
77017;BME280;65949;53.132;17.930;2023-05-07T03:59:18;101996.54;;;3.41;83.43
77017;BME280;65949;53.132;17.930;2023-05-07T04:01:45;102005.55;;;3.47;83.22
77017;BME280;65949;53.132;17.930;2023-05-07T04:04:15;102003.56;;;3.53;83.18
77017;BME280;65949;53.132;17.930;2023-05-07T04:06:42;102004.79;;;3.85;83.02
77017;BME280;65949;53.132;17.930;2023-05-07T04:09:09;102005.23;;;4.23;81.70
77017;BME280;65949;53.132;17.930;2023-05-07T04:11:36;102012.20;;;4.76;80.72
77017;BME280;65949;53.132;17.930;2023-05-07T04:14:03;102015.31;;;5.31;80.26
77017;BME280;65949;53.132;17.930;2023-05-07T04:16:29;102016.70;;;6.54;78.48
77017;BME280;65949;53.132;17.930;2023-05-07T04:18:56;102016.52;;;7.58;76.51
77017;BME280;65949;53.132;17.930;2023-05-07T04:21:23;102016.19;;;8.45;74.67
77017;BME280;65949;53.132;17.930;2023-05-07T04:23:50;102018.90;;;9.17;73.37
77017;BME280;65949;53.132;17.930;2023-05-07T04:26:17;102022.42;;;9.87;72.47
77017;BME280;65949;53.132;17.930;2023-05-07T04:28:44;102021.72;;;10.48;71.38
77017;BME280;65949;53.132;17.930;2023-05-07T04:31:11;102024.06;;;11.07;69.82
77017;BME280;65949;53.132;17.930;2023-05-07T04:33:38;102020.75;;;11.55;69.15
77017;BME280;65949;53.132;17.930;2023-05-07T04:36:06;102024.73;;;12.04;67.78
77017;BME280;65949;53.132;17.930;2023-05-07T04:38:37;102025.12;;;12.47;66.97
77017;BME280;65949;53.132;17.930;2023-05-07T04:41:06;102027.48;;;12.85;65.09
77017;BME280;65949;53.132;17.930;2023-05-07T04:43:35;102035.33;;;13.20;64.41
77017;BME280;65949;53.132;17.930;2023-05-07T04:46:01;102039.52;;;13.49;63.41
77017;BME280;65949;53.132;17.930;2023-05-07T04:48:29;102041.16;;;13.78;61.03
77017;BME280;65949;53.132;17.930;2023-05-07T04:50:57;102042.77;;;13.91;60.17
77017;BME280;65949;53.132;17.930;2023-05-07T04:53:24;102044.14;;;14.10;60.63
77017;BME280;65949;53.132;17.930;2023-05-07T04:55:55;102043.86;;;14.38;60.03
77017;BME280;65949;53.132;17.930;2023-05-07T04:58:24;102041.58;;;14.65;58.54
77017;BME280;65949;53.132;17.930;2023-05-07T05:00:50;102044.77;;;14.81;57.18
77017;BME280;65949;53.132;17.930;2023-05-07T05:03:17;102049.30;;;14.88;56.36
77017;BME280;65949;53.132;17.930;2023-05-07T05:05:44;102044.57;;;14.54;55.05
77017;BME280;65949;53.132;17.930;2023-05-07T05:08:11;102049.20;;;13.15;57.03
77017;BME280;65949;53.132;17.930;2023-05-07T05:10:39;102051.46;;;12.31;57.73
77017;BME280;65949;53.132;17.930;2023-05-07T05:13:07;102051.80;;;12.73;56.39
77017;BME280;65949;53.132;17.930;2023-05-07T05:15:35;102054.08;;;13.00;55.61
77017;BME280;65949;53.132;17.930;2023-05-07T05:18:02;102057.41;;;13.07;56.37
77017;BME280;65949;53.132;17.930;2023-05-07T05:20:28;102059.38;;;13.36;56.20
77017;BME280;65949;53.132;17.930;2023-05-07T05:22:56;102059.14;;;13.68;54.98
77017;BME280;65949;53.132;17.930;2023-05-07T05:25:22;102061.20;;;13.86;54.26
77017;BME280;65949;53.132;17.930;2023-05-07T05:27:49;102060.89;;;13.86;53.80
77017;BME280;65949;53.132;17.930;2023-05-07T05:30:16;102063.10;;;13.87;54.26
77017;BME280;65949;53.132;17.930;2023-05-07T05:32:45;102062.39;;;13.98;53.39
77017;BME280;65949;53.132;17.930;2023-05-07T05:35:11;102062.06;;;13.94;53.60
77017;BME280;65949;53.132;17.930;2023-05-07T05:37:38;102068.27;;;13.92;53.36
77017;BME280;65949;53.132;17.930;2023-05-07T05:40:06;102068.60;;;13.83;52.40
77017;BME280;65949;53.132;17.930;2023-05-07T05:42:33;102065.25;;;13.70;52.50
77017;BME280;65949;53.132;17.930;2023-05-07T05:45:00;102062.42;;;13.54;53.07
77017;BME280;65949;53.132;17.930;2023-05-07T05:47:26;102063.30;;;13.40;53.34
77017;BME280;65949;53.132;17.930;2023-05-07T05:49:54;102066.98;;;13.42;53.59
77017;BME280;65949;53.132;17.930;2023-05-07T05:52:21;102074.23;;;13.50;53.41
77017;BME280;65949;53.132;17.930;2023-05-07T05:54:50;102069.11;;;13.50;53.32
77017;BME280;65949;53.132;17.930;2023-05-07T05:57:17;102073.66;;;13.37;53.53
77017;BME280;65949;53.132;17.930;2023-05-07T05:59:44;102072.27;;;13.32;53.89
77017;BME280;65949;53.132;17.930;2023-05-07T06:02:11;102079.44;;;13.29;54.18
77017;BME280;65949;53.132;17.930;2023-05-07T06:04:38;102074.34;;;13.26;54.34
77017;BME280;65949;53.132;17.930;2023-05-07T06:07:05;102071.92;;;13.19;54.63
77017;BME280;65949;53.132;17.930;2023-05-07T06:09:31;102073.73;;;13.12;54.65
77017;BME280;65949;53.132;17.930;2023-05-07T06:11:58;102075.81;;;12.68;54.86
77017;BME280;65949;53.132;17.930;2023-05-07T06:14:24;102073.88;;;12.14;56.53
77017;BME280;65949;53.132;17.930;2023-05-07T06:16:52;102072.52;;;11.74;57.51
77017;BME280;65949;53.132;17.930;2023-05-07T06:19:18;102078.31;;;11.44;58.72
77017;BME280;65949;53.132;17.930;2023-05-07T06:21:49;102079.46;;;11.22;59.24
77017;BME280;65949;53.132;17.930;2023-05-07T06:24:16;102077.66;;;11.00;59.65
77017;BME280;65949;53.132;17.930;2023-05-07T06:26:43;102076.77;;;10.64;59.31
77017;BME280;65949;53.132;17.930;2023-05-07T06:29:10;102084.66;;;10.34;60.49
77017;BME280;65949;53.132;17.930;2023-05-07T06:31:39;102086.71;;;10.21;61.01
77017;BME280;65949;53.132;17.930;2023-05-07T06:34:07;102087.48;;;10.17;61.62
77017;BME280;65949;53.132;17.930;2023-05-07T06:36:37;102086.99;;;10.06;61.14
77017;BME280;65949;53.132;17.930;2023-05-07T06:39:24;102087.65;;;9.93;62.09
77017;BME280;65949;53.132;17.930;2023-05-07T06:41:52;102086.64;;;9.89;61.89
77017;BME280;65949;53.132;17.930;2023-05-07T06:44:26;102085.08;;;9.95;62.29
77017;BME280;65949;53.132;17.930;2023-05-07T06:47:04;102086.29;;;9.99;62.59
77017;BME280;65949;53.132;17.930;2023-05-07T06:49:32;102088.71;;;10.03;62.72
77017;BME280;65949;53.132;17.930;2023-05-07T06:51:59;102089.88;;;10.03;62.39
77017;BME280;65949;53.132;17.930;2023-05-07T06:54:26;102088.54;;;10.01;62.34
77017;BME280;65949;53.132;17.930;2023-05-07T06:56:53;102091.61;;;10.04;61.74
77017;BME280;65949;53.132;17.930;2023-05-07T06:59:20;102094.27;;;10.02;61.38
77017;BME280;65949;53.132;17.930;2023-05-07T07:01:46;102097.08;;;10.01;62.21
77017;BME280;65949;53.132;17.930;2023-05-07T07:04:13;102104.02;;;10.07;62.37
77017;BME280;65949;53.132;17.930;2023-05-07T07:06:41;102106.84;;;10.12;61.79
77017;BME280;65949;53.132;17.930;2023-05-07T07:09:10;102106.39;;;10.16;60.88
77017;BME280;65949;53.132;17.930;2023-05-07T07:11:36;102107.54;;;10.14;59.65
77017;BME280;65949;53.132;17.930;2023-05-07T07:14:05;102106.29;;;10.16;59.31
77017;BME280;65949;53.132;17.930;2023-05-07T07:16:34;102102.14;;;10.18;59.68
77017;BME280;65949;53.132;17.930;2023-05-07T07:19:01;102107.67;;;10.22;58.91
77017;BME280;65949;53.132;17.930;2023-05-07T07:21:28;102107.09;;;10.28;59.46
77017;BME280;65949;53.132;17.930;2023-05-07T07:23:55;102108.75;;;10.43;60.20
77017;BME280;65949;53.132;17.930;2023-05-07T07:26:22;102106.65;;;10.60;59.88
77017;BME280;65949;53.132;17.930;2023-05-07T07:28:49;102113.30;;;10.72;58.79
77017;BME280;65949;53.132;17.930;2023-05-07T07:31:18;102113.42;;;10.80;59.24
77017;BME280;65949;53.132;17.930;2023-05-07T07:33:45;102111.81;;;10.87;58.02
77017;BME280;65949;53.132;17.930;2023-05-07T07:36:12;102114.30;;;10.84;56.96
77017;BME280;65949;53.132;17.930;2023-05-07T07:38:39;102112.80;;;10.75;55.60
77017;BME280;65949;53.132;17.930;2023-05-07T07:41:10;102118.92;;;10.76;56.80
77017;BME280;65949;53.132;17.930;2023-05-07T07:43:36;102118.80;;;10.84;56.30
77017;BME280;65949;53.132;17.930;2023-05-07T07:46:04;102119.80;;;10.91;55.79
77017;BME280;65949;53.132;17.930;2023-05-07T07:48:31;102121.23;;;10.92;54.92
77017;BME280;65949;53.132;17.930;2023-05-07T07:50:59;102118.77;;;10.90;54.88
77017;BME280;65949;53.132;17.930;2023-05-07T07:53:25;102119.91;;;10.94;54.98
77017;BME280;65949;53.132;17.930;2023-05-07T07:55:52;102120.93;;;11.07;54.53
77017;BME280;65949;53.132;17.930;2023-05-07T07:58:20;102118.83;;;11.11;53.07
77017;BME280;65949;53.132;17.930;2023-05-07T08:00:49;102118.57;;;11.13;52.54
77017;BME280;65949;53.132;17.930;2023-05-07T08:03:16;102120.84;;;11.17;52.57
77017;BME280;65949;53.132;17.930;2023-05-07T08:05:45;102116.55;;;11.27;53.80
77017;BME280;65949;53.132;17.930;2023-05-07T08:08:12;102113.48;;;11.37;50.41
77017;BME280;65949;53.132;17.930;2023-05-07T08:10:39;102121.83;;;11.40;49.69
77017;BME280;65949;53.132;17.930;2023-05-07T08:13:11;102123.34;;;11.43;49.14
77017;BME280;65949;53.132;17.930;2023-05-07T08:15:38;102124.13;;;11.45;48.32
77017;BME280;65949;53.132;17.930;2023-05-07T08:18:06;102122.22;;;11.49;49.49
77017;BME280;65949;53.132;17.930;2023-05-07T08:20:33;102124.29;;;11.64;49.22
77017;BME280;65949;53.132;17.930;2023-05-07T08:23:04;102125.05;;;11.72;48.40
77017;BME280;65949;53.132;17.930;2023-05-07T08:25:33;102126.59;;;11.72;46.47
77017;BME280;65949;53.132;17.930;2023-05-07T08:28:00;102123.29;;;11.74;47.63
77017;BME280;65949;53.132;17.930;2023-05-07T08:30:27;102122.23;;;11.88;48.78
77017;BME280;65949;53.132;17.930;2023-05-07T08:32:54;102124.63;;;12.02;46.71
77017;BME280;65949;53.132;17.930;2023-05-07T08:35:21;102122.64;;;12.05;46.19
77017;BME280;65949;53.132;17.930;2023-05-07T08:37:48;102121.85;;;12.02;44.98
77017;BME280;65949;53.132;17.930;2023-05-07T08:40:16;102117.81;;;12.00;45.06
77017;BME280;65949;53.132;17.930;2023-05-07T08:42:43;102127.24;;;12.09;45.21
77017;BME280;65949;53.132;17.930;2023-05-07T08:45:11;102128.95;;;12.15;44.47
77017;BME280;65949;53.132;17.930;2023-05-07T08:47:44;102130.20;;;12.15;43.76
77017;BME280;65949;53.132;17.930;2023-05-07T08:50:11;102132.82;;;12.20;44.27
77017;BME280;65949;53.132;17.930;2023-05-07T08:52:40;102125.77;;;12.23;43.42
77017;BME280;65949;53.132;17.930;2023-05-07T08:55:09;102131.39;;;12.30;43.72
77017;BME280;65949;53.132;17.930;2023-05-07T08:57:36;102131.92;;;12.42;44.63
77017;BME280;65949;53.132;17.930;2023-05-07T09:00:04;102132.34;;;12.47;43.79
77017;BME280;65949;53.132;17.930;2023-05-07T09:02:37;102131.61;;;12.54;44.32
77017;BME280;65949;53.132;17.930;2023-05-07T09:05:06;102135.91;;;12.60;43.45
77017;BME280;65949;53.132;17.930;2023-05-07T09:07:34;102137.46;;;12.59;43.04
77017;BME280;65949;53.132;17.930;2023-05-07T09:10:03;102136.17;;;12.64;42.87
77017;BME280;65949;53.132;17.930;2023-05-07T09:12:31;102134.54;;;12.69;42.44
77017;BME280;65949;53.132;17.930;2023-05-07T09:14:58;102139.08;;;12.66;42.12
77017;BME280;65949;53.132;17.930;2023-05-07T09:17:26;102134.46;;;12.67;42.58
77017;BME280;65949;53.132;17.930;2023-05-07T09:19:53;102142.12;;;12.73;43.27
77017;BME280;65949;53.132;17.930;2023-05-07T09:22:20;102140.06;;;12.78;43.10
77017;BME280;65949;53.132;17.930;2023-05-07T09:24:54;102128.30;;;12.78;42.29
77017;BME280;65949;53.132;17.930;2023-05-07T09:27:24;102130.44;;;12.78;42.60
77017;BME280;65949;53.132;17.930;2023-05-07T09:29:52;102132.13;;;12.78;42.81
77017;BME280;65949;53.132;17.930;2023-05-07T09:32:18;102132.45;;;12.81;42.95
77017;BME280;65949;53.132;17.930;2023-05-07T09:34:45;102128.27;;;12.86;42.27
77017;BME280;65949;53.132;17.930;2023-05-07T09:37:14;102127.01;;;12.84;42.38
77017;BME280;65949;53.132;17.930;2023-05-07T09:39:43;102132.35;;;12.87;42.76
77017;BME280;65949;53.132;17.930;2023-05-07T09:42:11;102129.19;;;12.80;42.56
77017;BME280;65949;53.132;17.930;2023-05-07T09:44:38;102126.36;;;12.85;43.01
77017;BME280;65949;53.132;17.930;2023-05-07T09:47:07;102130.13;;;13.07;44.25
77017;BME280;65949;53.132;17.930;2023-05-07T09:49:39;102132.17;;;13.27;43.49
77017;BME280;65949;53.132;17.930;2023-05-07T09:52:09;102132.19;;;13.30;43.03
77017;BME280;65949;53.132;17.930;2023-05-07T09:54:40;102132.17;;;13.36;42.20
77017;BME280;65949;53.132;17.930;2023-05-07T09:57:11;102136.02;;;13.37;42.12
77017;BME280;65949;53.132;17.930;2023-05-07T09:59:42;102141.91;;;13.26;42.19
77017;BME280;65949;53.132;17.930;2023-05-07T10:02:11;102143.74;;;13.21;42.17
77017;BME280;65949;53.132;17.930;2023-05-07T10:04:46;102145.16;;;13.26;43.29
77017;BME280;65949;53.132;17.930;2023-05-07T10:07:13;102148.42;;;13.39;42.80
77017;BME280;65949;53.132;17.930;2023-05-07T10:09:40;102150.35;;;13.49;42.81
77017;BME280;65949;53.132;17.930;2023-05-07T10:12:13;102145.14;;;13.51;43.02
77017;BME280;65949;53.132;17.930;2023-05-07T10:14:40;102147.56;;;13.60;42.80
77017;BME280;65949;53.132;17.930;2023-05-07T10:17:07;102146.45;;;13.62;42.44
77017;BME280;65949;53.132;17.930;2023-05-07T10:19:35;102147.67;;;13.69;42.70
77017;BME280;65949;53.132;17.930;2023-05-07T10:22:05;102145.34;;;13.83;43.39
77017;BME280;65949;53.132;17.930;2023-05-07T10:24:35;102147.83;;;14.00;42.46
77017;BME280;65949;53.132;17.930;2023-05-07T10:27:10;102144.63;;;14.11;42.57
77017;BME280;65949;53.132;17.930;2023-05-07T10:30:00;102150.52;;;14.27;42.46
77017;BME280;65949;53.132;17.930;2023-05-07T10:32:47;102153.52;;;14.42;42.26
77017;BME280;65949;53.132;17.930;2023-05-07T10:35:26;102150.96;;;14.50;41.14
77017;BME280;65949;53.132;17.930;2023-05-07T10:37:56;102152.13;;;14.43;41.26
77017;BME280;65949;53.132;17.930;2023-05-07T10:40:23;102154.58;;;14.39;41.76
77017;BME280;65949;53.132;17.930;2023-05-07T10:42:59;102150.55;;;14.26;41.38
77017;BME280;65949;53.132;17.930;2023-05-07T10:45:28;102147.50;;;13.97;40.80
77017;BME280;65949;53.132;17.930;2023-05-07T10:50:32;102145.17;;;13.64;42.68
77017;BME280;65949;53.132;17.930;2023-05-07T10:53:21;102149.90;;;13.71;43.30
77017;BME280;65949;53.132;17.930;2023-05-07T10:58:50;102150.73;;;14.18;42.76
77017;BME280;65949;53.132;17.930;2023-05-07T11:02:04;102149.33;;;14.43;42.82
77017;BME280;65949;53.132;17.930;2023-05-07T11:05:19;102147.73;;;14.70;42.33
77017;BME280;65949;53.132;17.930;2023-05-07T11:07:57;102154.46;;;14.93;42.71
77017;BME280;65949;53.132;17.930;2023-05-07T11:10:50;102153.90;;;15.11;41.44
77017;BME280;65949;53.132;17.930;2023-05-07T11:13:45;102155.51;;;15.18;40.83
77017;BME280;65949;53.132;17.930;2023-05-07T11:16:22;102155.40;;;15.35;40.03
77017;BME280;65949;53.132;17.930;2023-05-07T11:18:54;102161.17;;;15.43;40.71
77017;BME280;65949;53.132;17.930;2023-05-07T11:21:40;102161.29;;;15.65;40.40
77017;BME280;65949;53.132;17.930;2023-05-07T11:24:23;102161.33;;;15.53;39.79
77017;BME280;65949;53.132;17.930;2023-05-07T11:27:00;102158.50;;;15.55;40.09
77017;BME280;65949;53.132;17.930;2023-05-07T11:29:27;102158.09;;;15.67;40.43
77017;BME280;65949;53.132;17.930;2023-05-07T11:32:16;102154.40;;;15.83;40.05
77017;BME280;65949;53.132;17.930;2023-05-07T11:34:54;102154.05;;;15.98;40.47
77017;BME280;65949;53.132;17.930;2023-05-07T11:37:23;102151.94;;;16.10;39.72
77017;BME280;65949;53.132;17.930;2023-05-07T11:40:08;102150.27;;;15.91;38.85
77017;BME280;65949;53.132;17.930;2023-05-07T11:42:39;102153.47;;;15.57;39.30
77017;BME280;65949;53.132;17.930;2023-05-07T11:45:08;102154.82;;;15.39;40.41
77017;BME280;65949;53.132;17.930;2023-05-07T11:47:35;102152.27;;;15.41;40.14
77017;BME280;65949;53.132;17.930;2023-05-07T11:50:07;102151.02;;;15.44;39.55
77017;BME280;65949;53.132;17.930;2023-05-07T11:52:35;102155.52;;;15.42;38.40
77017;BME280;65949;53.132;17.930;2023-05-07T11:55:02;102157.14;;;15.32;38.91
77017;BME280;65949;53.132;17.930;2023-05-07T11:57:33;102157.39;;;15.39;39.14
77017;BME280;65949;53.132;17.930;2023-05-07T12:00:01;102155.20;;;15.49;38.85
77017;BME280;65949;53.132;17.930;2023-05-07T12:02:39;102162.08;;;15.50;38.83
77017;BME280;65949;53.132;17.930;2023-05-07T12:05:06;102162.69;;;15.25;38.22
77017;BME280;65949;53.132;17.930;2023-05-07T12:07:35;102166.19;;;14.97;39.83
77017;BME280;65949;53.132;17.930;2023-05-07T12:10:06;102167.23;;;14.85;40.36
77017;BME280;65949;53.132;17.930;2023-05-07T12:12:45;102171.61;;;14.79;40.08
77017;BME280;65949;53.132;17.930;2023-05-07T12:15:16;102161.31;;;14.95;40.51
77017;BME280;65949;53.132;17.930;2023-05-07T12:17:43;102160.51;;;15.24;41.12
77017;BME280;65949;53.132;17.930;2023-05-07T12:20:10;102157.39;;;15.49;40.40
77017;BME280;65949;53.132;17.930;2023-05-07T12:22:36;102160.05;;;15.47;39.41
77017;BME280;65949;53.132;17.930;2023-05-07T12:25:03;102158.44;;;15.49;40.09
77017;BME280;65949;53.132;17.930;2023-05-07T12:27:30;102159.03;;;15.46;39.83
77017;BME280;65949;53.132;17.930;2023-05-07T12:29:57;102164.81;;;15.19;39.85
77017;BME280;65949;53.132;17.930;2023-05-07T12:32:25;102168.00;;;15.04;39.94
77017;BME280;65949;53.132;17.930;2023-05-07T12:34:52;102162.49;;;15.14;40.15
77017;BME280;65949;53.132;17.930;2023-05-07T12:37:25;102160.09;;;15.25;39.03
77017;BME280;65949;53.132;17.930;2023-05-07T12:40:09;102156.89;;;15.11;38.25
77017;BME280;65949;53.132;17.930;2023-05-07T12:42:38;102160.46;;;15.11;37.73
77017;BME280;65949;53.132;17.930;2023-05-07T12:45:12;102159.57;;;15.15;37.99
77017;BME280;65949;53.132;17.930;2023-05-07T12:47:39;102165.59;;;15.35;38.87
77017;BME280;65949;53.132;17.930;2023-05-07T12:50:06;102165.30;;;15.56;38.63
77017;BME280;65949;53.132;17.930;2023-05-07T12:52:34;102163.95;;;15.69;37.38
77017;BME280;65949;53.132;17.930;2023-05-07T12:55:07;102159.35;;;15.78;37.54
77017;BME280;65949;53.132;17.930;2023-05-07T12:57:39;102158.66;;;15.83;37.59